createdAt,value
2018-03-18T00:00:03.178Z,20.23
2018-03-18T00:00:34.824Z,20.25
2018-03-18T00:01:06.458Z,20.24
2018-03-18T00:01:38.102Z,20.24
2018-03-18T00:02:11.798Z,20.24
2018-03-18T00:02:43.948Z,20.22
2018-03-18T00:03:15.597Z,20.23
2018-03-18T00:03:47.287Z,20.23
2018-03-18T00:04:19.012Z,20.22
2018-03-18T00:04:50.646Z,20.22
2018-03-18T00:05:22.270Z,20.19
2018-03-18T00:05:53.894Z,20.20
2018-03-18T00:06:25.558Z,20.19
2018-03-18T00:06:57.237Z,20.18
2018-03-18T00:07:28.875Z,20.19
2018-03-18T00:08:00.501Z,20.19
2018-03-18T00:08:32.191Z,20.18
2018-03-18T00:09:03.786Z,20.18
2018-03-18T00:09:35.454Z,20.19
2018-03-18T00:10:07.091Z,20.20
2018-03-18T00:10:38.719Z,20.19
2018-03-18T00:11:10.342Z,20.20
2018-03-18T00:11:42.025Z,20.19
2018-03-18T00:12:13.650Z,20.19
2018-03-18T00:12:45.278Z,20.18
2018-03-18T00:13:16.901Z,20.19
2018-03-18T00:13:48.531Z,20.19
2018-03-18T00:14:20.163Z,20.20
2018-03-18T00:14:51.786Z,20.20
2018-03-18T00:15:23.454Z,20.21
2018-03-18T00:15:55.074Z,20.22
2018-03-18T00:16:26.718Z,20.22
2018-03-18T00:16:58.392Z,20.23
2018-03-18T00:17:30.022Z,20.26
2018-03-18T00:18:01.650Z,20.28
2018-03-18T00:18:33.318Z,20.31
2018-03-18T00:19:04.942Z,20.31
2018-03-18T00:19:36.620Z,20.38
2018-03-18T00:20:08.226Z,20.42
2018-03-18T00:20:39.854Z,20.45
2018-03-18T00:21:11.483Z,20.50
2018-03-18T00:21:43.114Z,20.51
2018-03-18T00:22:14.742Z,20.54
2018-03-18T00:22:46.421Z,20.54
2018-03-18T00:23:18.049Z,20.60
2018-03-18T00:23:49.683Z,20.61
2018-03-18T00:24:21.314Z,20.64
2018-03-18T00:24:52.939Z,20.69
2018-03-18T00:25:24.566Z,20.71
2018-03-18T00:25:56.195Z,20.71
2018-03-18T00:26:27.828Z,20.69
2018-03-18T00:26:59.459Z,20.70
2018-03-18T00:27:31.082Z,20.72
2018-03-18T00:28:02.753Z,20.74
2018-03-18T00:28:34.378Z,20.72
2018-03-18T00:29:06.042Z,20.74
2018-03-18T00:29:37.666Z,20.72
2018-03-18T00:30:09.290Z,20.73
2018-03-18T00:30:40.914Z,20.73
2018-03-18T00:31:12.538Z,20.75
2018-03-18T00:31:44.166Z,20.77
2018-03-18T00:32:16.114Z,20.74
2018-03-18T00:32:47.746Z,20.76
2018-03-18T00:33:19.420Z,20.80
2018-03-18T00:33:51.050Z,20.80
2018-03-18T00:34:22.674Z,20.78
2018-03-18T00:34:54.298Z,20.76
2018-03-18T00:35:25.924Z,20.77
2018-03-18T00:35:57.550Z,20.79
2018-03-18T00:36:29.178Z,20.80
2018-03-18T00:37:00.807Z,20.80
2018-03-18T00:37:32.434Z,20.79
2018-03-18T00:38:04.106Z,20.78
2018-03-18T00:38:35.734Z,20.79
2018-03-18T00:39:07.395Z,20.76
2018-03-18T00:39:39.027Z,20.77
2018-03-18T00:40:10.698Z,20.75
2018-03-18T00:40:42.326Z,20.76
2018-03-18T00:41:13.958Z,20.78
2018-03-18T00:41:45.586Z,20.75
2018-03-18T00:42:17.222Z,20.77
2018-03-18T00:42:48.849Z,20.77
2018-03-18T00:43:20.479Z,20.74
2018-03-18T00:43:52.150Z,20.71
2018-03-18T00:44:23.778Z,20.72
2018-03-18T00:44:55.402Z,20.76
2018-03-18T00:45:27.029Z,20.72
2018-03-18T00:45:58.694Z,20.73
2018-03-18T00:46:30.319Z,20.71
2018-03-18T00:47:01.943Z,20.71
2018-03-18T00:47:33.619Z,20.67
2018-03-18T00:48:05.234Z,20.69
2018-03-18T00:48:36.858Z,20.69
2018-03-18T00:49:08.486Z,20.64
2018-03-18T00:49:40.114Z,20.62
2018-03-18T00:50:11.737Z,20.59
2018-03-18T00:50:43.411Z,20.59
2018-03-18T00:51:15.037Z,20.61
2018-03-18T00:51:46.669Z,20.60
2018-03-18T00:52:18.327Z,20.59
2018-03-18T00:52:49.989Z,20.59
2018-03-18T00:53:21.610Z,20.58
2018-03-18T00:53:53.230Z,20.54
2018-03-18T00:54:24.858Z,20.49
2018-03-18T00:54:56.489Z,20.44
2018-03-18T00:55:28.110Z,20.42
2018-03-18T00:55:59.729Z,20.39
2018-03-18T00:56:31.358Z,20.36
2018-03-18T00:57:02.987Z,20.36
2018-03-18T00:57:34.658Z,20.36
2018-03-18T00:58:06.285Z,20.36
2018-03-18T00:58:37.909Z,20.33
2018-03-18T00:59:09.538Z,20.33
2018-03-18T00:59:41.167Z,20.32
2018-03-18T01:00:12.790Z,20.30
2018-03-18T01:00:44.461Z,20.28
2018-03-18T01:01:16.085Z,20.26
2018-03-18T01:01:47.705Z,20.29
2018-03-18T01:02:19.334Z,20.26
2018-03-18T01:02:50.968Z,20.25
2018-03-18T01:03:22.590Z,20.24
2018-03-18T01:03:54.218Z,20.21
2018-03-18T01:04:25.846Z,20.23
2018-03-18T01:04:57.474Z,20.23
2018-03-18T01:05:29.102Z,20.20
2018-03-18T01:06:00.786Z,20.21
2018-03-18T01:06:32.409Z,20.17
2018-03-18T01:07:04.038Z,20.16
2018-03-18T01:07:35.662Z,20.16
2018-03-18T01:08:07.294Z,20.13
2018-03-18T01:08:38.922Z,20.14
2018-03-18T01:09:10.551Z,20.11
2018-03-18T01:09:42.178Z,20.11
2018-03-18T01:10:13.802Z,20.10
2018-03-18T01:10:45.426Z,20.09
2018-03-18T01:11:17.096Z,20.08
2018-03-18T01:11:48.718Z,20.07
2018-03-18T01:12:20.342Z,20.05
2018-03-18T01:12:52.005Z,20.05
2018-03-18T01:13:23.626Z,20.04
2018-03-18T01:13:55.245Z,20.04
2018-03-18T01:14:26.876Z,20.03
2018-03-18T01:14:58.501Z,20.02
2018-03-18T01:15:30.126Z,20.01
2018-03-18T01:16:01.749Z,20.00
2018-03-18T01:16:33.374Z,19.98
2018-03-18T01:17:05.038Z,19.98
2018-03-18T01:17:36.661Z,19.97
2018-03-18T01:18:08.282Z,19.98
2018-03-18T01:18:39.911Z,19.99
2018-03-18T01:19:11.545Z,19.98
2018-03-18T01:19:43.166Z,19.96
2018-03-18T01:20:14.795Z,19.98
2018-03-18T01:20:46.422Z,19.98
2018-03-18T01:21:18.050Z,19.96
2018-03-18T01:21:49.713Z,19.95
2018-03-18T01:22:21.377Z,19.95
2018-03-18T01:22:53.006Z,19.94
2018-03-18T01:23:24.631Z,19.94
2018-03-18T01:23:56.262Z,19.92
2018-03-18T01:24:27.886Z,19.92
2018-03-18T01:24:59.553Z,19.93
2018-03-18T01:25:31.183Z,19.91
2018-03-18T01:26:02.810Z,19.94
2018-03-18T01:26:34.434Z,19.94
2018-03-18T01:27:06.102Z,19.91
2018-03-18T01:27:37.778Z,19.93
2018-03-18T01:28:09.402Z,19.96
2018-03-18T01:28:41.036Z,19.92
2018-03-18T01:29:12.686Z,19.92
2018-03-18T01:29:44.310Z,19.91
2018-03-18T01:30:15.938Z,19.93
2018-03-18T01:30:47.561Z,19.94
2018-03-18T01:31:19.230Z,19.94
2018-03-18T01:31:50.870Z,19.93
2018-03-18T01:32:22.493Z,19.95
2018-03-18T01:32:54.158Z,19.95
2018-03-18T01:33:25.782Z,19.97
2018-03-18T01:33:57.413Z,20.00
2018-03-18T01:34:29.038Z,20.00
2018-03-18T01:35:00.667Z,20.02
2018-03-18T01:35:32.291Z,20.01
2018-03-18T01:36:03.914Z,20.03
2018-03-18T01:36:35.542Z,20.07
2018-03-18T01:37:07.176Z,20.09
2018-03-18T01:37:38.806Z,20.14
2018-03-18T01:38:10.434Z,20.18
2018-03-18T01:38:42.065Z,20.21
2018-03-18T01:39:13.685Z,20.23
2018-03-18T01:39:45.310Z,20.25
2018-03-18T01:40:16.942Z,20.29
2018-03-18T01:40:48.618Z,20.30
2018-03-18T01:41:20.241Z,20.26
2018-03-18T01:41:51.871Z,20.33
2018-03-18T01:42:23.499Z,20.33
2018-03-18T01:42:55.122Z,20.34
2018-03-18T01:43:26.746Z,20.32
2018-03-18T01:43:58.369Z,20.35
2018-03-18T01:44:29.994Z,20.37
2018-03-18T01:45:01.622Z,20.37
2018-03-18T01:45:33.247Z,20.38
2018-03-18T01:46:04.923Z,20.36
2018-03-18T01:46:36.553Z,20.36
2018-03-18T01:47:08.222Z,20.40
2018-03-18T01:47:39.845Z,20.38
2018-03-18T01:48:11.475Z,20.38
2018-03-18T01:48:43.106Z,20.40
2018-03-18T01:49:14.730Z,20.41
2018-03-18T01:49:46.359Z,20.41
2018-03-18T01:50:17.991Z,20.42
2018-03-18T01:50:49.654Z,20.42
2018-03-18T01:51:21.288Z,20.40
2018-03-18T01:51:52.924Z,20.43
2018-03-18T01:52:24.597Z,20.43
2018-03-18T01:52:56.218Z,20.43
2018-03-18T01:53:27.862Z,20.47
2018-03-18T01:53:59.489Z,20.47
2018-03-18T01:54:31.114Z,20.49
2018-03-18T01:55:02.743Z,20.46
2018-03-18T01:55:34.402Z,20.47
2018-03-18T01:56:06.036Z,20.46
2018-03-18T01:56:37.671Z,20.46
2018-03-18T01:57:09.302Z,20.45
2018-03-18T01:57:40.974Z,20.43
2018-03-18T01:58:12.603Z,20.46
2018-03-18T01:58:44.226Z,20.47
2018-03-18T01:59:15.849Z,20.48
2018-03-18T01:59:47.479Z,20.51
2018-03-18T02:00:19.102Z,20.50
2018-03-18T02:00:50.730Z,20.49
2018-03-18T02:01:22.354Z,20.49
2018-03-18T02:01:53.978Z,20.48
2018-03-18T02:02:25.597Z,20.46
2018-03-18T02:02:57.270Z,20.51
2018-03-18T02:03:28.893Z,20.48
2018-03-18T02:04:00.523Z,20.50
2018-03-18T02:04:32.159Z,20.48
2018-03-18T02:05:03.793Z,20.54
2018-03-18T02:05:35.418Z,20.51
2018-03-18T02:06:07.050Z,20.49
2018-03-18T02:06:38.677Z,20.48
2018-03-18T02:07:10.306Z,20.51
2018-03-18T02:07:41.934Z,20.48
2018-03-18T02:08:13.611Z,20.48
2018-03-18T02:08:45.242Z,20.48
2018-03-18T02:09:16.870Z,20.48
2018-03-18T02:09:48.494Z,20.47
2018-03-18T02:10:20.122Z,20.42
2018-03-18T02:10:51.746Z,20.43
2018-03-18T02:11:23.370Z,20.43
2018-03-18T02:11:54.999Z,20.43
2018-03-18T02:12:26.626Z,20.40
2018-03-18T02:12:58.250Z,20.45
2018-03-18T02:13:29.922Z,20.46
2018-03-18T02:14:01.558Z,20.45
2018-03-18T02:14:33.226Z,20.43
2018-03-18T02:15:04.855Z,20.39
2018-03-18T02:15:36.486Z,20.37
2018-03-18T02:16:08.110Z,20.34
2018-03-18T02:16:39.734Z,20.33
2018-03-18T02:17:11.362Z,20.33
2018-03-18T02:17:43.026Z,20.32
2018-03-18T02:18:14.658Z,20.30
2018-03-18T02:18:46.287Z,20.30
2018-03-18T02:19:17.917Z,20.29
2018-03-18T02:19:49.547Z,20.31
2018-03-18T02:20:21.176Z,20.25
2018-03-18T02:20:52.806Z,20.25
2018-03-18T02:21:24.429Z,20.25
2018-03-18T02:21:56.074Z,20.24
2018-03-18T02:22:27.722Z,20.24
2018-03-18T02:22:59.369Z,20.24
2018-03-18T02:23:30.993Z,20.20
2018-03-18T02:24:02.667Z,20.17
2018-03-18T02:24:34.294Z,20.12
2018-03-18T02:25:05.917Z,20.10
2018-03-18T02:25:37.538Z,20.09
2018-03-18T02:26:09.207Z,20.08
2018-03-18T02:26:40.834Z,20.06
2018-03-18T02:27:12.462Z,20.07
2018-03-18T02:27:44.086Z,20.07
2018-03-18T02:28:15.710Z,20.06
2018-03-18T02:28:47.337Z,20.05
2018-03-18T02:29:19.018Z,20.03
2018-03-18T02:29:50.682Z,20.04
2018-03-18T02:30:22.310Z,20.02
2018-03-18T02:30:53.934Z,20.00
2018-03-18T02:31:25.554Z,19.98
2018-03-18T02:31:57.224Z,19.98
2018-03-18T02:32:28.846Z,19.97
2018-03-18T02:33:00.469Z,19.96
2018-03-18T02:33:32.098Z,19.95
2018-03-18T02:34:03.731Z,19.94
2018-03-18T02:34:35.368Z,19.93
2018-03-18T02:35:06.999Z,19.94
2018-03-18T02:35:38.623Z,19.93
2018-03-18T02:36:10.248Z,19.93
2018-03-18T02:36:41.918Z,19.95
2018-03-18T02:37:13.546Z,19.93
2018-03-18T02:37:45.171Z,19.92
2018-03-18T02:38:16.841Z,19.92
2018-03-18T02:38:48.471Z,19.90
2018-03-18T02:39:20.102Z,19.90
2018-03-18T02:39:51.731Z,19.92
2018-03-18T02:40:23.362Z,19.91
2018-03-18T02:40:54.999Z,19.93
2018-03-18T02:41:26.634Z,19.92
2018-03-18T02:41:58.258Z,19.92
2018-03-18T02:42:29.936Z,19.93
2018-03-18T02:43:01.562Z,19.92
2018-03-18T02:43:33.189Z,19.90
2018-03-18T02:44:04.815Z,19.88
2018-03-18T02:44:36.447Z,19.89
2018-03-18T02:45:08.071Z,19.87
2018-03-18T02:45:39.698Z,19.87
2018-03-18T02:46:11.322Z,19.87
2018-03-18T02:46:42.952Z,19.86
2018-03-18T02:47:14.603Z,19.86
2018-03-18T02:47:46.235Z,19.86
2018-03-18T02:48:17.864Z,19.86
2018-03-18T02:48:49.493Z,19.87
2018-03-18T02:49:21.162Z,19.89
2018-03-18T02:49:52.795Z,19.86
2018-03-18T02:50:24.419Z,19.87
2018-03-18T02:50:56.050Z,19.84
2018-03-18T02:51:27.698Z,19.85
2018-03-18T02:51:59.335Z,19.86
2018-03-18T02:52:30.957Z,19.87
2018-03-18T02:53:02.628Z,19.86
2018-03-18T02:53:34.282Z,19.88
2018-03-18T02:54:05.906Z,19.89
2018-03-18T02:54:37.536Z,19.92
2018-03-18T02:55:09.177Z,19.91
2018-03-18T02:55:40.802Z,19.91
2018-03-18T02:56:12.426Z,19.90
2018-03-18T02:56:44.055Z,19.89
2018-03-18T02:57:15.690Z,19.90
2018-03-18T02:57:47.358Z,19.92
2018-03-18T02:58:19.001Z,19.99
2018-03-18T02:58:50.634Z,19.98
2018-03-18T02:59:22.259Z,20.00
2018-03-18T02:59:53.930Z,19.97
2018-03-18T03:00:25.555Z,19.98
2018-03-18T03:00:57.184Z,20.01
2018-03-18T03:01:28.811Z,19.99
2018-03-18T03:02:00.442Z,20.01
2018-03-18T03:02:32.088Z,20.01
2018-03-18T03:03:03.713Z,20.03
2018-03-18T03:03:35.350Z,20.05
2018-03-18T03:04:06.970Z,20.06
2018-03-18T03:04:38.599Z,20.02
2018-03-18T03:05:10.221Z,20.03
2018-03-18T03:05:41.842Z,20.03
2018-03-18T03:06:13.469Z,20.05
2018-03-18T03:06:45.099Z,20.06
2018-03-18T03:07:16.731Z,20.06
2018-03-18T03:07:48.359Z,20.09
2018-03-18T03:08:19.987Z,20.10
2018-03-18T03:08:51.658Z,20.09
2018-03-18T03:09:23.274Z,20.12
2018-03-18T03:09:54.899Z,20.12
2018-03-18T03:10:26.565Z,20.11
2018-03-18T03:10:58.191Z,20.10
2018-03-18T03:11:29.818Z,20.05
2018-03-18T03:12:01.444Z,20.10
2018-03-18T03:12:33.065Z,20.14
2018-03-18T03:13:04.694Z,20.14
2018-03-18T03:13:36.319Z,20.16
2018-03-18T03:14:07.941Z,20.18
2018-03-18T03:14:39.566Z,20.16
2018-03-18T03:15:11.216Z,20.20
2018-03-18T03:15:42.882Z,20.19
2018-03-18T03:16:14.510Z,20.19
2018-03-18T03:16:46.138Z,20.19
2018-03-18T03:17:17.762Z,20.19
2018-03-18T03:17:49.382Z,20.17
2018-03-18T03:18:21.014Z,20.19
2018-03-18T03:18:52.643Z,20.19
2018-03-18T03:19:24.334Z,20.10
2018-03-18T03:19:55.962Z,20.15
2018-03-18T03:20:27.586Z,20.20
2018-03-18T03:20:59.209Z,20.16
2018-03-18T03:21:30.836Z,20.17
2018-03-18T03:22:02.466Z,20.18
2018-03-18T03:22:34.093Z,20.14
2018-03-18T03:23:05.725Z,20.13
2018-03-18T03:23:37.346Z,20.13
2018-03-18T03:24:08.975Z,20.19
2018-03-18T03:24:40.598Z,20.27
2018-03-18T03:25:12.288Z,20.21
2018-03-18T03:25:43.914Z,20.18
2018-03-18T03:26:15.538Z,20.16
2018-03-18T03:26:47.162Z,20.12
2018-03-18T03:27:18.787Z,20.10
2018-03-18T03:27:50.414Z,20.04
2018-03-18T03:28:22.046Z,20.03
2018-03-18T03:28:53.673Z,20.05
2018-03-18T03:29:25.297Z,20.09
2018-03-18T03:29:56.926Z,20.09
2018-03-18T03:30:28.596Z,20.13
2018-03-18T03:31:00.226Z,20.12
2018-03-18T03:31:31.869Z,20.12
2018-03-18T03:32:03.498Z,20.13
2018-03-18T03:32:35.123Z,20.15
2018-03-18T03:33:06.751Z,20.16
2018-03-18T03:33:38.383Z,20.14
2018-03-18T03:34:10.032Z,20.13
2018-03-18T03:34:41.669Z,20.16
2018-03-18T03:35:13.290Z,20.16
2018-03-18T03:35:44.950Z,20.18
2018-03-18T03:36:16.578Z,20.18
2018-03-18T03:36:48.244Z,20.20
2018-03-18T03:37:19.865Z,20.18
2018-03-18T03:37:51.499Z,20.18
2018-03-18T03:38:23.125Z,20.18
2018-03-18T03:38:54.754Z,20.17
2018-03-18T03:39:26.377Z,20.16
2018-03-18T03:39:58.008Z,20.17
2018-03-18T03:40:29.670Z,20.15
2018-03-18T03:41:01.339Z,20.14
2018-03-18T03:41:32.966Z,20.15
2018-03-18T03:42:04.590Z,20.17
2018-03-18T03:42:36.258Z,20.15
2018-03-18T03:43:07.881Z,20.15
2018-03-18T03:43:39.506Z,20.14
2018-03-18T03:44:11.138Z,20.14
2018-03-18T03:44:42.770Z,20.17
2018-03-18T03:45:14.394Z,20.15
2018-03-18T03:45:46.022Z,20.13
2018-03-18T03:46:17.655Z,20.13
2018-03-18T03:46:49.282Z,20.16
2018-03-18T03:47:20.910Z,20.16
2018-03-18T03:47:52.578Z,20.18
2018-03-18T03:48:24.206Z,20.18
2018-03-18T03:48:55.834Z,20.19
2018-03-18T03:49:27.458Z,20.17
2018-03-18T03:49:59.086Z,20.17
2018-03-18T03:50:30.710Z,20.16
2018-03-18T03:51:02.330Z,20.17
2018-03-18T03:51:33.959Z,20.18
2018-03-18T03:52:05.589Z,20.19
2018-03-18T03:52:37.253Z,20.20
2018-03-18T03:53:08.874Z,20.20
2018-03-18T03:53:40.498Z,20.19
2018-03-18T03:54:12.122Z,20.21
2018-03-18T03:54:43.746Z,20.22
2018-03-18T03:55:15.413Z,20.20
2018-03-18T03:55:47.046Z,20.19
2018-03-18T03:56:18.670Z,20.19
2018-03-18T03:56:50.303Z,20.17
2018-03-18T03:57:21.930Z,20.20
2018-03-18T03:57:53.558Z,20.22
2018-03-18T03:58:25.181Z,20.25
2018-03-18T03:58:56.845Z,20.22
2018-03-18T03:59:28.466Z,20.20
2018-03-18T04:00:00.139Z,20.19
2018-03-18T04:00:31.775Z,20.20
2018-03-18T04:01:03.406Z,20.18
2018-03-18T04:01:35.035Z,20.17
2018-03-18T04:02:06.658Z,20.16
2018-03-18T04:02:38.282Z,20.18
2018-03-18T04:03:09.906Z,20.16
2018-03-18T04:03:41.578Z,20.17
2018-03-18T04:04:13.207Z,20.19
2018-03-18T04:04:44.834Z,20.16
2018-03-18T04:05:16.508Z,20.16
2018-03-18T04:05:48.138Z,20.16
2018-03-18T04:06:19.761Z,20.14
2018-03-18T04:06:51.392Z,20.09
2018-03-18T04:07:23.018Z,20.12
2018-03-18T04:07:54.650Z,20.11
2018-03-18T04:08:26.277Z,20.08
2018-03-18T04:08:57.905Z,20.05
2018-03-18T04:09:29.531Z,20.06
2018-03-18T04:10:01.159Z,20.07
2018-03-18T04:10:32.819Z,20.06
2018-03-18T04:11:04.446Z,20.09
2018-03-18T04:11:36.113Z,20.08
2018-03-18T04:12:07.734Z,20.07
2018-03-18T04:12:39.358Z,20.09
2018-03-18T04:13:11.093Z,20.05
2018-03-18T04:13:42.718Z,20.03
2018-03-18T04:14:14.342Z,20.03
2018-03-18T04:14:45.967Z,20.03
2018-03-18T04:15:17.594Z,20.03
2018-03-18T04:15:49.226Z,20.02
2018-03-18T04:16:20.850Z,20.03
2018-03-18T04:16:52.479Z,20.01
2018-03-18T04:17:24.110Z,20.00
2018-03-18T04:17:55.730Z,19.93
2018-03-18T04:18:27.393Z,19.95
2018-03-18T04:18:59.018Z,19.95
2018-03-18T04:19:30.649Z,19.93
2018-03-18T04:20:02.286Z,19.92
2018-03-18T04:20:33.914Z,19.91
2018-03-18T04:21:05.541Z,19.92
2018-03-18T04:21:37.173Z,19.90
2018-03-18T04:22:08.798Z,19.90
2018-03-18T04:22:40.462Z,19.88
2018-03-18T04:23:12.135Z,19.87
2018-03-18T04:23:43.782Z,19.86
2018-03-18T04:24:15.409Z,19.89
2018-03-18T04:24:47.038Z,19.88
2018-03-18T04:25:18.658Z,19.88
2018-03-18T04:25:50.282Z,19.87
2018-03-18T04:26:21.910Z,19.86
2018-03-18T04:26:53.662Z,19.86
2018-03-18T04:27:25.286Z,19.85
2018-03-18T04:27:56.954Z,19.85
2018-03-18T04:28:28.578Z,19.87
2018-03-18T04:29:00.207Z,19.84
2018-03-18T04:29:31.830Z,19.84
2018-03-18T04:30:03.454Z,19.86
2018-03-18T04:30:35.082Z,19.85
2018-03-18T04:31:06.715Z,19.85
2018-03-18T04:31:38.346Z,19.86
2018-03-18T04:32:09.975Z,19.89
2018-03-18T04:32:41.634Z,19.90
2018-03-18T04:33:13.266Z,19.87
2018-03-18T04:33:44.892Z,19.88
2018-03-18T04:34:16.562Z,19.88
2018-03-18T04:34:48.186Z,19.88
2018-03-18T04:35:19.810Z,19.90
2018-03-18T04:35:51.450Z,19.90
2018-03-18T04:36:23.080Z,19.89
2018-03-18T04:36:54.702Z,19.89
2018-03-18T04:37:26.330Z,19.91
2018-03-18T04:37:58.002Z,19.92
2018-03-18T04:38:29.626Z,19.92
2018-03-18T04:39:01.250Z,19.90
2018-03-18T04:39:32.873Z,19.91
2018-03-18T04:40:04.529Z,19.90
2018-03-18T04:40:36.149Z,19.90
2018-03-18T04:41:07.783Z,19.90
2018-03-18T04:41:39.410Z,19.92
2018-03-18T04:42:11.035Z,19.90
2018-03-18T04:42:42.657Z,19.92
2018-03-18T04:43:14.285Z,19.92
2018-03-18T04:43:45.910Z,19.92
2018-03-18T04:44:17.538Z,19.93
2018-03-18T04:44:49.162Z,19.93
2018-03-18T04:45:20.818Z,19.94
2018-03-18T04:45:52.442Z,19.92
2018-03-18T04:46:24.074Z,19.92
2018-03-18T04:46:55.703Z,19.93
2018-03-18T04:47:27.321Z,19.96
2018-03-18T04:47:58.946Z,19.98
2018-03-18T04:48:30.570Z,19.97
2018-03-18T04:49:02.243Z,19.99
2018-03-18T04:49:33.913Z,19.99
2018-03-18T04:50:05.534Z,19.98
2018-03-18T04:50:37.158Z,19.97
2018-03-18T04:51:08.786Z,19.97
2018-03-18T04:51:40.414Z,19.99
2018-03-18T04:52:12.096Z,19.99
2018-03-18T04:52:43.739Z,19.97
2018-03-18T04:53:15.366Z,19.97
2018-03-18T04:53:46.992Z,19.99
2018-03-18T04:54:18.628Z,19.98
2018-03-18T04:54:50.268Z,19.98
2018-03-18T04:55:21.898Z,19.99
2018-03-18T04:55:53.522Z,19.97
2018-03-18T04:56:25.146Z,19.98
2018-03-18T04:56:56.775Z,20.02
2018-03-18T04:57:28.402Z,20.03
2018-03-18T04:58:00.026Z,20.00
2018-03-18T04:58:31.655Z,20.01
2018-03-18T04:59:03.286Z,20.04
2018-03-18T04:59:34.915Z,20.04
2018-03-18T05:00:06.538Z,20.06
2018-03-18T05:00:38.162Z,20.07
2018-03-18T05:01:09.850Z,20.07
2018-03-18T05:01:41.474Z,20.08
2018-03-18T05:02:13.103Z,20.07
2018-03-18T05:02:44.730Z,20.08
2018-03-18T05:03:16.358Z,20.09
2018-03-18T05:03:47.983Z,20.10
2018-03-18T05:04:19.606Z,20.10
2018-03-18T05:04:51.230Z,20.10
2018-03-18T05:05:22.907Z,20.10
2018-03-18T05:05:54.557Z,20.11
2018-03-18T05:06:26.226Z,20.11
2018-03-18T05:06:57.901Z,20.15
2018-03-18T05:07:29.535Z,20.17
2018-03-18T05:08:01.163Z,20.16
2018-03-18T05:08:32.790Z,20.16
2018-03-18T05:09:04.414Z,20.15
2018-03-18T05:09:36.078Z,20.12
2018-03-18T05:10:07.711Z,20.14
2018-03-18T05:10:39.342Z,20.19
2018-03-18T05:11:10.966Z,20.15
2018-03-18T05:11:42.591Z,20.18
2018-03-18T05:12:14.218Z,20.15
2018-03-18T05:12:45.862Z,20.13
2018-03-18T05:13:17.490Z,20.12
2018-03-18T05:13:49.162Z,20.12
2018-03-18T05:14:20.791Z,20.09
2018-03-18T05:14:52.418Z,20.12
2018-03-18T05:15:24.045Z,20.10
2018-03-18T05:15:55.675Z,20.09
2018-03-18T05:16:27.298Z,20.11
2018-03-18T05:16:58.926Z,20.10
2018-03-18T05:17:30.550Z,20.08
2018-03-18T05:18:02.178Z,20.04
2018-03-18T05:18:33.802Z,20.04
2018-03-18T05:19:05.473Z,20.08
2018-03-18T05:19:37.099Z,20.05
2018-03-18T05:20:08.722Z,20.07
2018-03-18T05:20:40.341Z,20.07
2018-03-18T05:21:11.966Z,20.07
2018-03-18T05:21:43.594Z,20.06
2018-03-18T05:22:15.317Z,20.05
2018-03-18T05:22:46.943Z,20.04
2018-03-18T05:23:18.570Z,20.05
2018-03-18T05:23:50.203Z,20.06
2018-03-18T05:24:21.869Z,20.05
2018-03-18T05:24:53.499Z,20.06
2018-03-18T05:25:25.126Z,20.06
2018-03-18T05:25:56.794Z,20.04
2018-03-18T05:26:28.431Z,20.05
2018-03-18T05:27:00.054Z,19.99
2018-03-18T05:27:31.691Z,20.02
2018-03-18T05:28:03.322Z,20.04
2018-03-18T05:28:34.951Z,20.00
2018-03-18T05:29:06.627Z,20.00
2018-03-18T05:29:38.262Z,20.01
2018-03-18T05:30:09.895Z,20.02
2018-03-18T05:30:41.526Z,20.02
2018-03-18T05:31:13.154Z,19.98
2018-03-18T05:31:44.782Z,19.98
2018-03-18T05:32:16.421Z,19.99
2018-03-18T05:32:48.066Z,19.97
2018-03-18T05:33:19.697Z,19.96
2018-03-18T05:33:51.322Z,19.97
2018-03-18T05:34:22.993Z,19.99
2018-03-18T05:34:54.619Z,19.97
2018-03-18T05:35:26.243Z,19.94
2018-03-18T05:35:57.866Z,19.93
2018-03-18T05:36:29.494Z,19.91
2018-03-18T05:37:01.126Z,19.89
2018-03-18T05:37:32.753Z,19.93
2018-03-18T05:38:04.394Z,19.92
2018-03-18T05:38:36.078Z,19.92
2018-03-18T05:39:07.726Z,19.91
2018-03-18T05:39:39.367Z,19.90
2018-03-18T05:40:10.989Z,19.91
2018-03-18T05:40:42.613Z,19.90
2018-03-18T05:41:14.242Z,19.92
2018-03-18T05:41:45.870Z,19.92
2018-03-18T05:42:17.494Z,19.91
2018-03-18T05:42:49.122Z,19.91
2018-03-18T05:43:20.817Z,19.89
2018-03-18T05:43:52.443Z,19.89
2018-03-18T05:44:24.071Z,19.87
2018-03-18T05:44:55.703Z,19.87
2018-03-18T05:45:27.332Z,19.85
2018-03-18T05:45:58.957Z,19.88
2018-03-18T05:46:30.626Z,19.88
2018-03-18T05:47:02.258Z,19.88
2018-03-18T05:47:33.882Z,19.88
2018-03-18T05:48:05.550Z,19.87
2018-03-18T05:48:37.178Z,19.88
2018-03-18T05:49:08.802Z,19.89
2018-03-18T05:49:40.435Z,19.90
2018-03-18T05:50:12.066Z,19.95
2018-03-18T05:50:43.747Z,19.95
2018-03-18T05:51:15.374Z,19.92
2018-03-18T05:51:46.998Z,19.90
2018-03-18T05:52:18.629Z,19.90
2018-03-18T05:52:50.258Z,19.89
2018-03-18T05:53:21.882Z,19.91
2018-03-18T05:53:53.510Z,19.95
2018-03-18T05:54:25.200Z,19.92
2018-03-18T05:54:56.838Z,19.96
2018-03-18T05:55:28.462Z,19.95
2018-03-18T05:56:00.135Z,19.96
2018-03-18T05:56:31.784Z,19.92
2018-03-18T05:57:03.426Z,19.96
2018-03-18T05:57:35.055Z,19.96
2018-03-18T05:58:06.686Z,19.95
2018-03-18T05:58:38.312Z,19.95
2018-03-18T05:59:09.954Z,19.97
2018-03-18T05:59:41.577Z,19.99
2018-03-18T06:00:13.201Z,19.99
2018-03-18T06:00:44.869Z,19.96
2018-03-18T06:01:16.490Z,19.98
2018-03-18T06:01:48.118Z,19.98
2018-03-18T06:02:19.748Z,19.99
2018-03-18T06:02:51.378Z,19.99
2018-03-18T06:03:23.006Z,19.99
2018-03-18T06:03:54.633Z,19.98
2018-03-18T06:04:26.259Z,19.98
2018-03-18T06:04:57.894Z,19.99
2018-03-18T06:05:29.562Z,19.98
2018-03-18T06:06:01.187Z,19.98
2018-03-18T06:06:32.846Z,19.98
2018-03-18T06:07:04.502Z,19.97
2018-03-18T06:07:36.126Z,19.97
2018-03-18T06:08:07.758Z,20.00
2018-03-18T06:08:39.382Z,19.98
2018-03-18T06:09:11.014Z,19.99
2018-03-18T06:09:42.638Z,19.98
2018-03-18T06:10:14.262Z,19.99
2018-03-18T06:10:45.885Z,19.99
2018-03-18T06:11:17.514Z,20.00
2018-03-18T06:11:49.178Z,20.01
2018-03-18T06:12:20.802Z,19.98
2018-03-18T06:12:52.425Z,19.97
2018-03-18T06:13:24.045Z,20.00
2018-03-18T06:13:55.674Z,19.98
2018-03-18T06:14:27.298Z,20.00
2018-03-18T06:14:58.919Z,20.04
2018-03-18T06:15:30.546Z,20.06
2018-03-18T06:16:02.170Z,20.03
2018-03-18T06:16:33.826Z,19.98
2018-03-18T06:17:05.450Z,19.94
2018-03-18T06:17:37.078Z,19.97
2018-03-18T06:18:08.706Z,19.95
2018-03-18T06:18:40.510Z,19.96
2018-03-18T06:19:12.134Z,19.97
2018-03-18T06:19:43.802Z,19.99
2018-03-18T06:20:15.435Z,19.98
2018-03-18T06:20:47.058Z,19.96
2018-03-18T06:21:18.690Z,19.98
2018-03-18T06:21:50.320Z,19.97
2018-03-18T06:22:22.002Z,19.98
2018-03-18T06:22:53.631Z,20.02
2018-03-18T06:23:25.262Z,19.98
2018-03-18T06:23:56.890Z,19.99
2018-03-18T06:24:28.514Z,19.99
2018-03-18T06:25:00.146Z,20.00
2018-03-18T06:25:31.778Z,19.98
2018-03-18T06:26:03.402Z,20.04
2018-03-18T06:26:35.030Z,20.04
2018-03-18T06:27:06.655Z,19.99
2018-03-18T06:27:38.330Z,19.96
2018-03-18T06:28:09.959Z,19.96
2018-03-18T06:28:41.581Z,19.94
2018-03-18T06:29:13.211Z,19.91
2018-03-18T06:29:44.838Z,19.90
2018-03-18T06:30:16.462Z,19.88
2018-03-18T06:30:48.090Z,19.87
2018-03-18T06:31:20.222Z,19.88
2018-03-18T06:31:51.846Z,19.87
2018-03-18T06:32:23.518Z,19.83
2018-03-18T06:32:55.142Z,19.80
2018-03-18T06:33:26.770Z,19.79
2018-03-18T06:33:58.399Z,19.76
2018-03-18T06:34:30.023Z,19.75
2018-03-18T06:35:01.651Z,19.73
2018-03-18T06:35:33.282Z,19.72
2018-03-18T06:36:05.003Z,19.70
2018-03-18T06:36:36.626Z,19.63
2018-03-18T06:37:08.255Z,19.61
2018-03-18T06:37:39.883Z,19.57
2018-03-18T06:38:11.506Z,19.56
2018-03-18T06:38:43.129Z,19.54
2018-03-18T06:39:14.750Z,19.55
2018-03-18T06:39:46.378Z,19.51
2018-03-18T06:40:18.002Z,19.51
2018-03-18T06:40:49.635Z,19.49
2018-03-18T06:41:21.297Z,19.49
2018-03-18T06:41:52.938Z,19.51
2018-03-18T06:42:24.562Z,19.51
2018-03-18T06:42:56.191Z,19.52
2018-03-18T06:43:27.822Z,19.55
2018-03-18T06:43:59.451Z,19.52
2018-03-18T06:44:31.078Z,19.56
2018-03-18T06:45:02.754Z,19.56
2018-03-18T06:45:34.385Z,19.54
2018-03-18T06:46:06.010Z,19.56
2018-03-18T06:46:37.642Z,19.55
2018-03-18T06:47:09.265Z,19.55